createdAt,value
2017-05-28T00:00:24.987Z,1011.34
2017-05-28T00:01:24.999Z,1011.37
2017-05-28T00:02:25.008Z,1011.37
2017-05-28T00:03:25.018Z,1011.37
2017-05-28T00:04:25.027Z,1011.38
2017-05-28T00:05:25.037Z,1011.34
2017-05-28T00:06:25.098Z,1011.39
2017-05-28T00:07:25.058Z,1011.43
2017-05-28T00:08:25.069Z,1011.43
2017-05-28T00:09:25.077Z,1011.46
2017-05-28T00:10:25.088Z,1011.46
2017-05-28T00:11:25.099Z,1011.43
2017-05-28T00:12:25.109Z,1011.44
2017-05-28T00:13:25.119Z,1011.44
2017-05-28T00:14:25.127Z,1011.47
2017-05-28T00:15:25.138Z,1011.42
2017-05-28T00:16:25.147Z,1011.46
2017-05-28T00:17:25.158Z,1011.44
2017-05-28T00:18:25.169Z,1011.44
2017-05-28T00:19:25.179Z,1011.48
2017-05-28T00:20:25.188Z,1011.46
2017-05-28T00:21:25.197Z,1011.45
2017-05-28T00:22:25.209Z,1011.49
2017-05-28T00:23:25.219Z,1011.45
2017-05-28T00:24:25.228Z,1011.45
2017-05-28T00:25:25.238Z,1011.46
2017-05-28T00:26:25.248Z,1011.46
2017-05-28T00:27:25.258Z,1011.52
2017-05-28T00:28:25.268Z,1011.55
2017-05-28T00:29:25.330Z,1011.57
2017-05-28T00:30:25.288Z,1011.52
2017-05-28T00:31:25.298Z,1011.52
2017-05-28T00:32:25.310Z,1011.57
2017-05-28T00:33:25.318Z,1011.59
2017-05-28T00:34:25.378Z,1011.53
2017-05-28T00:35:25.387Z,1011.58
2017-05-28T00:36:25.346Z,1011.6
2017-05-28T00:37:25.358Z,1011.62
2017-05-28T00:38:25.367Z,1011.66
2017-05-28T00:39:25.377Z,1011.71
2017-05-28T00:40:25.387Z,1011.7
2017-05-28T00:41:25.398Z,1011.7
2017-05-28T00:42:25.457Z,1011.7
2017-05-28T00:43:25.418Z,1011.67
2017-05-28T00:44:25.428Z,1011.59
2017-05-28T00:45:25.493Z,1011.6
2017-05-28T00:46:25.445Z,1011.63
2017-05-28T00:47:25.457Z,1011.58
2017-05-28T00:48:25.466Z,1011.59
2017-05-28T00:49:25.476Z,1011.56
2017-05-28T00:50:25.485Z,1011.54
2017-05-28T00:51:25.495Z,1011.55
2017-05-28T00:52:25.506Z,1011.51
2017-05-28T00:53:25.516Z,1011.52
2017-05-28T00:54:25.527Z,1011.5
2017-05-28T00:55:25.536Z,1011.5
2017-05-28T00:56:25.546Z,1011.5
2017-05-28T00:57:25.555Z,1011.53
2017-05-28T00:58:25.565Z,1011.53
2017-05-28T00:59:25.576Z,1011.57
2017-05-28T01:00:25.584Z,1011.61
2017-05-28T01:01:25.645Z,1011.6
2017-05-28T01:02:25.607Z,1011.62
2017-05-28T01:03:25.616Z,1011.66
2017-05-28T01:04:25.624Z,1011.62
2017-05-28T01:05:25.635Z,1011.64
2017-05-28T01:06:25.647Z,1011.64
2017-05-28T01:07:25.654Z,1011.65
2017-05-28T01:08:25.664Z,1011.66
2017-05-28T01:09:25.675Z,1011.66
2017-05-28T01:10:25.684Z,1011.61
2017-05-28T01:11:25.744Z,1011.63
2017-05-28T01:12:25.703Z,1011.63
2017-05-28T01:13:25.765Z,1011.62
2017-05-28T01:14:25.725Z,1011.6
2017-05-28T01:15:25.733Z,1011.64
2017-05-28T01:16:25.744Z,1011.64
2017-05-28T01:17:25.753Z,1011.65
2017-05-28T01:18:25.763Z,1011.63
2017-05-28T01:19:25.773Z,1011.6
2017-05-28T01:20:25.835Z,1011.59
2017-05-28T01:21:25.843Z,1011.57
2017-05-28T01:22:25.801Z,1011.56
2017-05-28T01:23:25.813Z,1011.56
2017-05-28T01:24:25.823Z,1011.53
2017-05-28T01:25:25.834Z,1011.57
2017-05-28T01:26:25.844Z,1011.52
2017-05-28T01:27:25.853Z,1011.48
2017-05-28T01:28:25.864Z,1011.51
2017-05-28T01:29:25.873Z,1011.5
2017-05-28T01:30:25.882Z,1011.53
2017-05-28T01:31:25.892Z,1011.52
2017-05-28T01:32:25.902Z,1011.55
2017-05-28T01:33:25.914Z,1011.58
2017-05-28T01:34:25.921Z,1011.58
2017-05-28T01:35:25.932Z,1011.61
2017-05-28T01:36:25.990Z,1011.62
2017-05-28T01:37:25.951Z,1011.6
2017-05-28T01:38:25.958Z,1011.6
2017-05-28T01:39:25.969Z,1011.63
2017-05-28T01:40:25.981Z,1011.65
2017-05-28T01:41:25.990Z,1011.7
2017-05-28T01:42:26.050Z,1011.72
2017-05-28T01:43:26.012Z,1011.75
2017-05-28T01:44:26.021Z,1011.69
2017-05-28T01:45:26.029Z,1011.69
2017-05-28T01:46:26.041Z,1011.63
2017-05-28T01:47:26.053Z,1011.55
2017-05-28T01:48:26.059Z,1011.53
2017-05-28T01:49:26.069Z,1011.47
2017-05-28T01:50:26.079Z,1011.5
2017-05-28T01:51:26.089Z,1011.5
2017-05-28T01:52:26.103Z,1011.53
2017-05-28T01:53:26.108Z,1011.57
2017-05-28T01:54:26.119Z,1011.55
2017-05-28T01:55:26.127Z,1011.55
2017-05-28T01:56:26.136Z,1011.54
2017-05-28T01:57:26.147Z,1011.52
2017-05-28T01:58:26.157Z,1011.54
2017-05-28T01:59:26.168Z,1011.53
2017-05-28T02:00:26.177Z,1011.5
2017-05-28T02:01:26.187Z,1011.5
2017-05-28T02:02:26.197Z,1011.49
2017-05-28T02:03:26.206Z,1011.51
2017-05-28T02:04:26.218Z,1011.49
2017-05-28T02:05:26.225Z,1011.41
2017-05-28T02:06:26.236Z,1011.41
2017-05-28T02:07:26.247Z,1011.37
2017-05-28T02:08:26.256Z,1011.37
2017-05-28T02:09:26.265Z,1011.33
2017-05-28T02:10:26.275Z,1011.3
2017-05-28T02:11:26.334Z,1011.3
2017-05-28T02:12:26.344Z,1011.34
2017-05-28T02:13:26.303Z,1011.34
2017-05-28T02:14:26.313Z,1011.33
2017-05-28T02:15:26.324Z,1011.41
2017-05-28T02:16:26.334Z,1011.38
2017-05-28T02:17:26.343Z,1011.35
2017-05-28T02:18:26.403Z,1011.39
2017-05-28T02:19:26.361Z,1011.4
2017-05-28T02:20:26.373Z,1011.44
2017-05-28T02:21:26.383Z,1011.44
2017-05-28T02:22:26.395Z,1011.42
2017-05-28T02:23:26.402Z,1011.41
2017-05-28T02:24:26.411Z,1011.39
2017-05-28T02:25:26.422Z,1011.39
2017-05-28T02:26:26.430Z,1011.36
2017-05-28T02:27:26.441Z,1011.38
2017-05-28T02:28:26.452Z,1011.38
2017-05-28T02:29:26.460Z,1011.35
2017-05-28T02:30:26.471Z,1011.35
2017-05-28T02:31:26.481Z,1011.34
2017-05-28T02:32:26.490Z,1011.35
2017-05-28T02:33:26.500Z,1011.34
2017-05-28T02:34:26.511Z,1011.35
2017-05-28T02:35:26.519Z,1011.35
2017-05-28T02:36:26.531Z,1011.37
2017-05-28T02:37:26.541Z,1011.34
2017-05-28T02:38:26.550Z,1011.36
2017-05-28T02:40:26.569Z,1011.39
2017-05-28T02:41:26.579Z,1011.38
2017-05-28T02:42:26.588Z,1011.39
2017-05-28T02:43:26.610Z,1011.42
2017-05-28T02:44:26.607Z,1011.43
2017-05-28T02:45:26.617Z,1011.44
2017-05-28T02:46:26.626Z,1011.41
2017-05-28T02:47:26.640Z,1011.44
2017-05-28T02:48:26.647Z,1011.41
2017-05-28T02:49:26.658Z,1011.41
2017-05-28T02:50:26.717Z,1011.45
2017-05-28T02:51:26.677Z,1011.45
2017-05-28T02:52:26.686Z,1011.47
2017-05-28T02:53:26.698Z,1011.48
2017-05-28T02:54:26.704Z,1011.5
2017-05-28T02:55:26.715Z,1011.48
2017-05-28T02:56:26.725Z,1011.49
2017-05-28T02:57:26.783Z,1011.48
2017-05-28T02:58:26.744Z,1011.48
2017-05-28T02:59:26.755Z,1011.52
2017-05-28T03:00:26.764Z,1011.54
2017-05-28T03:01:26.775Z,1011.57
2017-05-28T03:02:26.783Z,1011.57
2017-05-28T03:03:26.845Z,1011.61
2017-05-28T03:04:26.802Z,1011.63
2017-05-28T03:05:26.811Z,1011.63
2017-05-28T03:06:26.873Z,1011.65
2017-05-28T03:07:26.832Z,1011.65
2017-05-28T03:08:26.842Z,1011.66
2017-05-28T03:09:26.853Z,1011.66
2017-05-28T03:10:26.860Z,1011.67
2017-05-28T03:11:26.871Z,1011.73
2017-05-28T03:12:26.884Z,1011.73
2017-05-28T03:13:26.891Z,1011.7
2017-05-28T03:14:26.900Z,1011.71
2017-05-28T03:15:26.911Z,1011.72
2017-05-28T03:16:26.922Z,1011.73
2017-05-28T03:17:26.930Z,1011.76
2017-05-28T03:18:26.941Z,1011.74
2017-05-28T03:19:26.951Z,1011.75
2017-05-28T03:20:26.961Z,1011.74
2017-05-28T03:21:26.970Z,1011.75
2017-05-28T03:22:26.979Z,1011.79
2017-05-28T03:23:26.990Z,1011.83
2017-05-28T03:24:26.999Z,1011.86
2017-05-28T03:25:27.010Z,1011.92
2017-05-28T03:26:27.020Z,1011.98
2017-05-28T03:27:27.028Z,1012
2017-05-28T03:28:27.039Z,1012.04
2017-05-28T03:29:27.049Z,1012.04
2017-05-28T03:30:27.057Z,1012.06
2017-05-28T03:31:27.066Z,1012.11
2017-05-28T03:32:27.077Z,1012.1
2017-05-28T03:33:27.087Z,1012.08
2017-05-28T03:34:27.104Z,1012.12
2017-05-28T03:35:27.106Z,1012.14
2017-05-28T03:36:27.115Z,1012.13
2017-05-28T03:37:27.126Z,1012.17
2017-05-28T03:38:27.136Z,1012.27
2017-05-28T03:39:27.145Z,1012.27
2017-05-28T03:40:27.155Z,1012.29
2017-05-28T03:41:27.165Z,1012.31
2017-05-28T03:42:27.176Z,1012.37
2017-05-28T03:43:27.233Z,1012.38
2017-05-28T03:44:27.194Z,1012.42
2017-05-28T03:45:27.204Z,1012.45
2017-05-28T03:46:27.213Z,1012.48
2017-05-28T03:47:27.224Z,1012.46
2017-05-28T03:48:27.283Z,1012.48
2017-05-28T03:49:27.242Z,1012.48
2017-05-28T03:50:27.251Z,1012.45
2017-05-28T03:51:27.262Z,1012.45
2017-05-28T03:52:27.270Z,1012.47
2017-05-28T03:53:27.284Z,1012.49
2017-05-28T03:54:27.292Z,1012.49
2017-05-28T03:55:27.302Z,1012.48
2017-05-28T03:56:27.311Z,1012.53
2017-05-28T03:57:27.321Z,1012.5
2017-05-28T03:58:27.331Z,1012.49
2017-05-28T03:59:27.341Z,1012.49
2017-05-28T04:00:27.351Z,1012.48
2017-05-28T04:01:27.362Z,1012.54
2017-05-28T04:02:27.421Z,1012.53
2017-05-28T04:03:27.379Z,1012.57
2017-05-28T04:04:27.392Z,1012.62
2017-05-28T04:05:27.399Z,1012.64
2017-05-28T04:06:27.411Z,1012.63
2017-05-28T04:07:27.419Z,1012.65
2017-05-28T04:08:27.429Z,1012.64
2017-05-28T04:09:27.439Z,1012.71
2017-05-28T04:10:27.446Z,1012.79
2017-05-28T04:11:27.507Z,1012.82
2017-05-28T04:12:27.471Z,1012.83
2017-05-28T04:13:27.478Z,1012.83
2017-05-28T04:14:27.487Z,1012.75
2017-05-28T04:15:27.497Z,1012.77
2017-05-28T04:16:27.508Z,1012.72
2017-05-28T04:17:27.518Z,1012.74
2017-05-28T04:18:27.529Z,1012.76
2017-05-28T04:19:27.538Z,1012.75
2017-05-28T04:20:27.546Z,1012.76
2017-05-28T04:21:27.555Z,1012.79
2017-05-28T04:22:27.565Z,1012.82
2017-05-28T04:23:27.577Z,1012.84
2017-05-28T04:24:27.586Z,1012.88
2017-05-28T04:25:27.593Z,1012.92
2017-05-28T04:26:27.603Z,1012.86
2017-05-28T04:27:27.615Z,1012.85
2017-05-28T04:28:27.626Z,1012.83
2017-05-28T04:29:27.636Z,1012.86
2017-05-28T04:30:27.645Z,1012.88
2017-05-28T04:31:27.654Z,1012.88
2017-05-28T04:32:27.963Z,1012.83
2017-05-28T04:33:27.673Z,1012.82
2017-05-28T04:34:27.733Z,1012.74
2017-05-28T04:35:27.694Z,1012.69
2017-05-28T04:36:27.701Z,1012.64
2017-05-28T04:37:27.713Z,1012.6
2017-05-28T04:38:27.724Z,1012.51
2017-05-28T04:39:27.782Z,1012.43
2017-05-28T04:40:27.740Z,1012.39
2017-05-28T04:41:27.752Z,1012.3
2017-05-28T04:42:27.764Z,1012.32
2017-05-28T04:43:27.769Z,1012.32
2017-05-28T04:44:27.781Z,1012.3
2017-05-28T04:45:27.840Z,1012.29
2017-05-28T04:46:27.800Z,1012.29
2017-05-28T04:47:27.810Z,1012.3
2017-05-28T04:48:27.820Z,1012.33
2017-05-28T04:49:27.830Z,1012.29
2017-05-28T04:50:27.841Z,1012.35
2017-05-28T04:51:27.851Z,1012.36
2017-05-28T04:52:27.858Z,1012.38
2017-05-28T04:53:27.919Z,1012.4
2017-05-28T04:54:27.879Z,1012.41
2017-05-28T04:55:27.888Z,1012.43
2017-05-28T04:56:27.900Z,1012.5
2017-05-28T04:57:27.909Z,1012.54
2017-05-28T04:58:27.917Z,1012.57
2017-05-28T04:59:27.929Z,1012.57
2017-05-28T05:00:27.940Z,1012.54
2017-05-28T05:01:27.946Z,1012.46
2017-05-28T05:02:27.957Z,1012.39
2017-05-28T05:03:27.966Z,1012.31
2017-05-28T05:04:27.974Z,1012.2
2017-05-28T05:05:27.986Z,1012.2
2017-05-28T05:06:28.046Z,1012.22
2017-05-28T05:07:28.006Z,1012.21
2017-05-28T05:08:28.016Z,1012.28
2017-05-28T05:09:28.025Z,1012.27
2017-05-28T05:10:28.036Z,1012.28
2017-05-28T05:11:28.045Z,1012.32
2017-05-28T05:12:28.053Z,1012.36
2017-05-28T05:13:28.064Z,1012.33
2017-05-28T05:14:28.073Z,1012.31
2017-05-28T05:15:28.084Z,1012.37
2017-05-28T05:16:28.094Z,1012.43
2017-05-28T05:17:28.154Z,1012.53
2017-05-28T05:18:28.115Z,1012.71
2017-05-28T05:19:28.173Z,1012.78
2017-05-28T05:20:28.251Z,1012.86
2017-05-28T05:21:28.143Z,1012.95
2017-05-28T05:22:28.151Z,1013.03
2017-05-28T05:23:28.163Z,1013.08
2017-05-28T05:24:28.172Z,1013.09
2017-05-28T05:25:28.182Z,1013.08
2017-05-28T05:26:28.193Z,1013.14
2017-05-28T05:27:28.202Z,1013.14
2017-05-28T05:28:28.211Z,1013.14
2017-05-28T05:29:28.222Z,1013.19
2017-05-28T05:30:28.231Z,1013.2
2017-05-28T05:31:28.240Z,1013.18
2017-05-28T05:32:28.251Z,1013.19
2017-05-28T05:33:28.261Z,1013.13
2017-05-28T05:34:28.270Z,1013.08
2017-05-28T05:35:28.280Z,1012.95
2017-05-28T05:36:28.291Z,1012.92
2017-05-28T05:37:28.299Z,1012.88
2017-05-28T05:38:28.309Z,1012.82
2017-05-28T05:39:28.321Z,1012.8
2017-05-28T05:40:28.329Z,1012.72
2017-05-28T05:41:28.339Z,1012.63
2017-05-28T05:42:28.400Z,1012.51
2017-05-28T05:43:28.358Z,1012.48
2017-05-28T05:44:28.368Z,1012.48
2017-05-28T05:45:28.427Z,1012.46
2017-05-28T05:46:28.386Z,1012.44
2017-05-28T05:47:28.396Z,1012.48
2017-05-28T05:48:28.407Z,1012.48
2017-05-28T05:49:28.416Z,1012.46
2017-05-28T05:50:28.425Z,1012.49
2017-05-28T05:51:28.435Z,1012.47
2017-05-28T05:52:28.445Z,1012.49
2017-05-28T05:53:28.454Z,1012.54
2017-05-28T05:54:28.465Z,1012.56
2017-05-28T05:55:28.474Z,1012.6
2017-05-28T05:56:28.484Z,1012.67
2017-05-28T05:57:28.493Z,1012.73
2017-05-28T05:58:28.503Z,1012.84
2017-05-28T05:59:28.513Z,1012.91
2017-05-28T06:00:28.527Z,1012.95
2017-05-28T06:01:28.530Z,1012.97
2017-05-28T06:02:28.542Z,1013
2017-05-28T06:03:28.551Z,1012.99
2017-05-28T06:04:28.561Z,1012.98
2017-05-28T06:05:28.571Z,1013.07
2017-05-28T06:06:28.580Z,1013.13
2017-05-28T06:07:28.589Z,1013.27
2017-05-28T06:08:28.599Z,1013.4
2017-05-28T06:09:28.608Z,1013.52
2017-05-28T06:10:28.619Z,1013.55
2017-05-28T06:11:28.628Z,1013.46
2017-05-28T06:12:28.687Z,1013.28
2017-05-28T06:13:28.649Z,1013.27
2017-05-28T06:14:28.658Z,1013.29
2017-05-28T06:15:28.667Z,1013.34
2017-05-28T06:16:28.677Z,1013.33
2017-05-28T06:17:28.684Z,1013.08
2017-05-28T06:18:28.694Z,1012.76
2017-05-28T06:19:28.756Z,1012.67
2017-05-28T06:20:28.714Z,1012.63
2017-05-28T06:21:28.726Z,1012.6
2017-05-28T06:22:28.734Z,1012.65
2017-05-28T06:23:28.744Z,1012.7
2017-05-28T06:24:28.754Z,1012.73
2017-05-28T06:25:28.764Z,1012.79
2017-05-28T06:26:28.775Z,1012.82
2017-05-28T06:27:28.784Z,1012.8
2017-05-28T06:28:28.794Z,1012.72
2017-05-28T06:29:28.803Z,1012.69
2017-05-28T06:30:28.813Z,1012.59
2017-05-28T06:31:28.823Z,1012.58
2017-05-28T06:32:28.833Z,1012.63
2017-05-28T06:33:28.842Z,1012.67
2017-05-28T06:34:28.850Z,1012.69
2017-05-28T06:35:28.862Z,1012.72
2017-05-28T06:36:28.870Z,1012.69
2017-05-28T06:37:28.934Z,1012.65
2017-05-28T06:38:28.890Z,1012.59
2017-05-28T06:39:28.899Z,1012.58
2017-05-28T06:40:28.908Z,1012.53
2017-05-28T06:41:28.919Z,1012.52
2017-05-28T06:42:28.928Z,1012.53
2017-05-28T06:43:28.940Z,1012.56
2017-05-28T06:44:28.947Z,1012.58
2017-05-28T06:45:28.957Z,1012.58
2017-05-28T06:46:28.966Z,1012.56
2017-05-28T06:47:28.976Z,1012.57
2017-05-28T06:48:28.987Z,1012.58
2017-05-28T06:49:28.995Z,1012.61
2017-05-28T06:50:29.005Z,1012.64
2017-05-28T06:51:29.013Z,1012.71
2017-05-28T06:52:29.023Z,1012.78
2017-05-28T06:53:29.033Z,1012.82
2017-05-28T06:54:29.041Z,1012.83
2017-05-28T06:55:29.053Z,1012.81
2017-05-28T06:56:29.075Z,1012.81
2017-05-28T06:57:29.071Z,1012.84
2017-05-28T06:58:29.082Z,1012.77
2017-05-28T06:59:29.090Z,1012.76
2017-05-28T07:00:29.099Z,1012.67
2017-05-28T07:01:29.159Z,1012.73
2017-05-28T07:02:29.118Z,1013.43
2017-05-28T07:03:29.127Z,1012.74
2017-05-28T07:04:29.137Z,1012.73
2017-05-28T07:05:29.148Z,1012.67
2017-05-28T07:06:29.158Z,1012.66
2017-05-28T07:07:29.167Z,1012.69
2017-05-28T07:08:29.177Z,1012.66
2017-05-28T07:09:29.186Z,1012.68
2017-05-28T07:10:29.195Z,1012.75
2017-05-28T07:11:29.205Z,1012.85
2017-05-28T07:12:29.265Z,1013.85
2017-05-28T07:13:29.225Z,1013.91
2017-05-28T07:14:29.235Z,1013.82
2017-05-28T07:15:29.247Z,1013.05
2017-05-28T07:16:29.257Z,1013.24
2017-05-28T07:17:29.267Z,1013.44
2017-05-28T07:18:29.279Z,1013.04
2017-05-28T07:19:29.288Z,1013.65
2017-05-28T07:20:29.300Z,1013.47
2017-05-28T07:21:29.311Z,1013.37
2017-05-28T07:22:29.321Z,1013.66
2017-05-28T07:23:29.334Z,1013.69
2017-05-28T07:24:29.401Z,1013.73
2017-05-28T07:25:29.406Z,1013.71
2017-05-28T07:26:29.368Z,1013.65
2017-05-28T07:27:29.381Z,1013.56
2017-05-28T07:28:29.391Z,1013.45
2017-05-28T07:29:29.404Z,1013.43
2017-05-28T07:30:29.417Z,1013.44
2017-05-28T07:31:29.428Z,1013.13
2017-05-28T07:32:29.439Z,1012.99
2017-05-28T07:33:29.451Z,1013
2017-05-28T07:34:29.463Z,1013.31
2017-05-28T07:35:29.474Z,1013
2017-05-28T07:36:29.485Z,1012.96
2017-05-28T07:37:29.497Z,1012.98
2017-05-28T07:38:29.556Z,1013
2017-05-28T07:39:29.518Z,1012.95
2017-05-28T07:40:29.530Z,1012.99
2017-05-28T07:41:29.540Z,1012.97
2017-05-28T07:42:29.551Z,1012.99
2017-05-28T07:43:29.561Z,1012.94
2017-05-28T07:44:29.573Z,1012.95
2017-05-28T07:45:29.584Z,1012.93
2017-05-28T07:46:29.592Z,1012.87
2017-05-28T07:47:29.604Z,1012.88
2017-05-28T07:48:29.616Z,1012.87
2017-05-28T07:49:29.625Z,1012.84
2017-05-28T07:50:29.634Z,1012.85
2017-05-28T07:51:29.645Z,1012.81
2017-05-28T07:52:29.656Z,1012.78
2017-05-28T07:53:29.666Z,1012.76
2017-05-28T07:54:29.676Z,1012.79
2017-05-28T07:55:29.686Z,1012.81
2017-05-28T07:56:29.697Z,1012.76
2017-05-28T07:57:29.707Z,1012.79
2017-05-28T07:58:29.718Z,1012.81
2017-05-28T07:59:29.727Z,1012.84
2017-05-28T08:00:29.738Z,1012.85
2017-05-28T08:01:29.749Z,1012.88
2017-05-28T08:02:29.809Z,1012.87
2017-05-28T08:03:29.771Z,1012.88
2017-05-28T08:04:29.779Z,1012.91
2017-05-28T08:05:29.789Z,1012.9
2017-05-28T08:06:29.799Z,1012.95
2017-05-28T08:07:29.810Z,1012.98
2017-05-28T08:08:29.821Z,1013.02
2017-05-28T08:09:29.830Z,1013.04
2017-05-28T08:10:29.840Z,1013.14
2017-05-28T08:11:29.850Z,1013.11
2017-05-28T08:12:29.861Z,1013.18
2017-05-28T08:13:29.870Z,1013.2
2017-05-28T08:14:29.882Z,1013.23
2017-05-28T08:15:29.890Z,1013.21
2017-05-28T08:16:29.901Z,1013.24
2017-05-28T08:17:29.913Z,1013.26
2017-05-28T08:18:29.923Z,1013.29
2017-05-28T08:19:29.931Z,1013.3
2017-05-28T08:20:29.941Z,1013.37
2017-05-28T08:21:29.952Z,1013.39
2017-05-28T08:22:29.962Z,1013.4
2017-05-28T08:23:29.972Z,1013.4
2017-05-28T08:24:29.982Z,1013.48
2017-05-28T08:25:29.992Z,1013.48
2017-05-28T08:26:30.002Z,1013.49
2017-05-28T08:27:30.063Z,1013.49
2017-05-28T08:28:30.024Z,1013.48
2017-05-28T08:29:30.033Z,1013.48
2017-05-28T08:30:30.041Z,1013.47
2017-05-28T08:31:30.054Z,1013.48
2017-05-28T08:32:30.062Z,1013.46
2017-05-28T08:33:30.072Z,1013.44
2017-05-28T08:34:30.084Z,1013.44
2017-05-28T08:35:30.094Z,1013.47
2017-05-28T08:36:30.103Z,1013.49
2017-05-28T08:37:30.113Z,1013.45
2017-05-28T08:38:30.122Z,1013.47
2017-05-28T08:39:30.131Z,1013.54
2017-05-28T08:40:30.144Z,1013.53
2017-05-28T08:41:30.153Z,1013.6
2017-05-28T08:42:30.215Z,1013.74
2017-05-28T08:43:30.174Z,1013.85
2017-05-28T08:44:30.182Z,1014.03
2017-05-28T08:45:30.192Z,1014.19
2017-05-28T08:46:30.202Z,1014.38
2017-05-28T08:47:30.212Z,1014.54
2017-05-28T08:48:30.222Z,1014.65
2017-05-28T08:49:30.232Z,1014.82
2017-05-28T08:50:30.242Z,1014.74
2017-05-28T08:51:30.251Z,1014.64
2017-05-28T08:52:30.260Z,1014.5
2017-05-28T08:53:30.270Z,1014.28
2017-05-28T08:54:30.281Z,1013.98
2017-05-28T08:55:30.291Z,1013.82
2017-05-28T08:56:30.301Z,1013.8
2017-05-28T08:57:30.361Z,1013.9
2017-05-28T08:58:30.322Z,1014.01
2017-05-28T08:59:30.331Z,1014.07
2017-05-28T09:00:30.340Z,1014.13
2017-05-28T09:01:30.351Z,1014.16
2017-05-28T09:02:30.361Z,1014.13
2017-05-28T09:03:30.369Z,1014.17
2017-05-28T09:04:30.379Z,1014.21
2017-05-28T09:05:30.389Z,1014.21
2017-05-28T09:06:30.398Z,1014.26
2017-05-28T09:07:30.409Z,1014.16
2017-05-28T09:08:30.420Z,1014.18
2017-05-28T09:09:30.429Z,1014.2
2017-05-28T09:10:30.437Z,1014.2
2017-05-28T09:11:30.451Z,1014.18
2017-05-28T09:12:30.457Z,1014.15
2017-05-28T09:13:30.467Z,1014.14
2017-05-28T09:14:30.476Z,1014.07
2017-05-28T09:15:30.485Z,1014.07
2017-05-28T09:16:30.495Z,1014.08
2017-05-28T09:17:30.505Z,1014.01
2017-05-28T09:18:30.514Z,1014.02
2017-05-28T09:19:30.525Z,1013.99
2017-05-28T09:20:30.532Z,1014.02
2017-05-28T09:21:30.541Z,1014
2017-05-28T09:22:30.554Z,1014.01
2017-05-28T09:23:30.612Z,1013.99
2017-05-28T09:24:30.573Z,1013.94
2017-05-28T09:25:30.581Z,1013.85
2017-05-28T09:26:30.592Z,1013.85
2017-05-28T09:27:30.601Z,1013.8
2017-05-28T09:28:30.610Z,1013.77
2017-05-28T09:29:30.622Z,1013.69
2017-05-28T09:30:30.630Z,1013.7
2017-05-28T09:31:30.641Z,1013.66
2017-05-28T09:32:30.696Z,1013.64
2017-05-28T09:33:30.656Z,1013.62
2017-05-28T09:34:30.667Z,1013.61
2017-05-28T09:35:30.674Z,1013.54
2017-05-28T09:36:30.685Z,1013.46
2017-05-28T09:37:30.693Z,1013.3
2017-05-28T09:38:30.756Z,1013.18
2017-05-28T09:39:30.709Z,1013.06
2017-05-28T09:40:30.716Z,1013.04
2017-05-28T09:41:30.724Z,1013.02
2017-05-28T09:42:30.733Z,1012.96
2017-05-28T09:43:30.738Z,1012.92
2017-05-28T09:44:30.746Z,1012.94
2017-05-28T09:45:30.753Z,1013.01
2017-05-28T09:46:30.759Z,1013.05
2017-05-28T09:47:30.767Z,1013.07
2017-05-28T09:48:30.775Z,1013.09
2017-05-28T09:49:30.781Z,1013.18
2017-05-28T09:50:30.788Z,1013.14
2017-05-28T09:51:30.796Z,1013.14
2017-05-28T09:52:30.804Z,1013.11
2017-05-28T09:53:30.812Z,1013.04
2017-05-28T09:54:30.819Z,1013.01
2017-05-28T09:55:30.826Z,1012.97
2017-05-28T09:56:30.830Z,1012.95
2017-05-28T09:57:30.836Z,1012.89
2017-05-28T09:58:30.844Z,1012.91
2017-05-28T09:59:30.850Z,1012.98
2017-05-28T10:00:30.904Z,1012.99
2017-05-28T10:01:30.862Z,1012.98
2017-05-28T10:02:30.867Z,1012.94
2017-05-28T10:03:30.874Z,1012.89
2017-05-28T10:04:30.928Z,1012.78
2017-05-28T10:05:30.884Z,1012.68
2017-05-28T10:06:30.889Z,1012.73
2017-05-28T10:07:30.895Z,1012.75
2017-05-28T10:08:30.898Z,1012.82
2017-05-28T10:09:30.903Z,1012.81
2017-05-28T10:10:30.957Z,1012.75
2017-05-28T10:11:30.914Z,1012.65
2017-05-28T10:12:30.967Z,1012.56
2017-05-28T10:13:30.922Z,1012.46
2017-05-28T10:14:30.928Z,1012.48
2017-05-28T10:15:30.934Z,1012.37
2017-05-28T10:16:30.940Z,1012.33
2017-05-28T10:17:30.946Z,1012.33
2017-05-28T10:18:30.953Z,1012.38
2017-05-28T10:19:30.958Z,1012.38
2017-05-28T10:20:30.963Z,1012.37
2017-05-28T10:21:30.971Z,1012.39
2017-05-28T10:22:30.978Z,1012.42
2017-05-28T10:23:30.983Z,1012.31
2017-05-28T10:24:30.988Z,1012.3
2017-05-28T10:25:30.996Z,1012.24
2017-05-28T10:26:31.002Z,1012.22
2017-05-28T10:27:31.006Z,1012.27
2017-05-28T10:28:31.015Z,1012.28
2017-05-28T10:29:31.021Z,1012.26
2017-05-28T10:30:31.028Z,1012.2
2017-05-28T10:31:31.035Z,1012.16
2017-05-28T10:32:31.043Z,1012.19
2017-05-28T10:33:31.052Z,1012.22
2017-05-28T10:34:31.056Z,1012.21
2017-05-28T10:35:31.067Z,1012.3
2017-05-28T10:36:31.070Z,1012.39
2017-05-28T10:37:31.075Z,1012.45
2017-05-28T10:38:31.083Z,1012.59
2017-05-28T10:39:31.138Z,1012.67
2017-05-28T10:40:31.095Z,1012.67
2017-05-28T10:41:31.101Z,1012.75
2017-05-28T10:42:31.109Z,1012.72
2017-05-28T10:43:31.115Z,1012.76
2017-05-28T10:44:31.121Z,1012.71
2017-05-28T10:45:31.127Z,1012.68
2017-05-28T10:46:31.183Z,1012.7
2017-05-28T10:47:31.140Z,1012.68
2017-05-28T10:48:31.195Z,1012.68
2017-05-28T10:49:31.151Z,1012.63
2017-05-28T10:50:31.210Z,1012.66
2017-05-28T10:51:31.164Z,1012.65
2017-05-28T10:52:31.170Z,1012.61
2017-05-28T10:53:31.176Z,1012.6
2017-05-28T10:54:31.183Z,1012.59
2017-05-28T10:55:31.189Z,1012.57
2017-05-28T10:56:31.245Z,1012.6
2017-05-28T10:57:31.203Z,1012.64
2017-05-28T10:58:31.209Z,1012.69
2017-05-28T10:59:31.216Z,1012.71
2017-05-28T11:00:31.221Z,1012.73
2017-05-28T11:01:31.227Z,1012.86
2017-05-28T11:02:31.234Z,1012.86
2017-05-28T11:03:31.241Z,1012.83
2017-05-28T11:04:31.245Z,1012.79
2017-05-28T11:05:31.253Z,1012.87
2017-05-28T11:06:31.258Z,1012.85
2017-05-28T11:07:31.314Z,1012.83
2017-05-28T11:08:31.274Z,1012.84
2017-05-28T11:09:31.279Z,1012.88
2017-05-28T11:10:31.284Z,1012.92
2017-05-28T11:11:31.291Z,1012.88
2017-05-28T11:12:31.300Z,1012.93
2017-05-28T11:13:31.307Z,1012.93
2017-05-28T11:14:31.315Z,1012.93
2017-05-28T11:15:31.323Z,1012.93
2017-05-28T11:16:31.330Z,1012.87
2017-05-28T11:17:31.339Z,1012.86
2017-05-28T11:18:31.346Z,1012.84
2017-05-28T11:19:31.355Z,1012.81
2017-05-28T11:20:31.366Z,1012.84
2017-05-28T11:21:31.370Z,1012.84
2017-05-28T11:22:31.381Z,1012.85
2017-05-28T11:23:31.390Z,1012.81
2017-05-28T11:24:31.399Z,1012.79
2017-05-28T11:25:31.407Z,1012.81
2017-05-28T11:26:31.416Z,1012.79
2017-05-28T11:27:31.425Z,1012.86
2017-05-28T11:28:31.434Z,1012.86
2017-05-28T11:29:31.443Z,1012.8
2017-05-28T11:30:31.453Z,1012.79
2017-05-28T11:31:31.462Z,1012.8
2017-05-28T11:32:31.471Z,1012.74
2017-05-28T11:33:31.479Z,1012.74
2017-05-28T11:34:31.489Z,1012.73
2017-05-28T11:35:31.499Z,1012.78
2017-05-28T11:36:31.508Z,1012.77
2017-05-28T11:37:31.568Z,1012.7
2017-05-28T11:38:31.527Z,1012.69
2017-05-28T11:39:31.538Z,1012.65
2017-05-28T11:40:31.545Z,1012.67
2017-05-28T11:41:31.557Z,1012.72
2017-05-28T11:42:31.566Z,1012.71
2017-05-28T11:43:31.576Z,1012.72
2017-05-28T11:44:31.584Z,1012.69
2017-05-28T11:45:31.594Z,1012.71
2017-05-28T11:46:31.605Z,1012.69
2017-05-28T11:47:31.665Z,1012.68
2017-05-28T11:48:31.673Z,1012.68
2017-05-28T11:49:31.633Z,1012.67
2017-05-28T11:50:31.643Z,1012.6
2017-05-28T11:51:31.652Z,1012.63
2017-05-28T11:52:31.662Z,1012.66
2017-05-28T11:53:31.671Z,1012.66
2017-05-28T11:54:31.681Z,1012.64
2017-05-28T11:55:31.691Z,1012.64
2017-05-28T11:56:31.700Z,1012.63
2017-05-28T11:57:31.711Z,1012.68
2017-05-28T11:58:31.722Z,1012.7
2017-05-28T11:59:31.730Z,1012.69
2017-05-28T12:00:31.740Z,1012.65
2017-05-28T12:01:31.756Z,1012.68
2017-05-28T12:02:31.758Z,1012.67
2017-05-28T12:03:31.769Z,1012.74
2017-05-28T12:04:31.780Z,1012.72
2017-05-28T12:05:31.789Z,1012.71
2017-05-28T12:06:31.847Z,1012.69
2017-05-28T12:07:31.808Z,1012.72
2017-05-28T12:08:31.820Z,1012.7
2017-05-28T12:09:31.829Z,1012.69